createdAt,value
2022-11-29T00:02:18.487Z,43.20
2022-11-29T00:04:52.240Z,43.80
2022-11-29T00:07:25.751Z,45.15
2022-11-29T00:10:00.781Z,46.80
2022-11-29T00:12:34.372Z,50.25
2022-11-29T00:15:08.878Z,43.50
2022-11-29T00:17:42.417Z,46.10
2022-11-29T00:20:16.281Z,47.38
2022-11-29T00:22:49.714Z,52.10
2022-11-29T00:25:24.996Z,49.85
2022-11-29T00:27:58.451Z,50.65
2022-11-29T00:30:32.172Z,49.13
2022-11-29T00:33:05.625Z,47.70
2022-11-29T00:35:39.258Z,48.85
2022-11-29T00:38:12.690Z,50.30
2022-11-29T00:40:52.072Z,50.03
2022-11-29T00:43:25.649Z,53.30
2022-11-29T00:45:59.388Z,47.83
2022-11-29T00:48:34.048Z,49.47
2022-11-29T00:51:08.590Z,46.22
2022-11-29T00:53:42.216Z,47.13
2022-11-29T00:56:17.319Z,48.05
2022-11-29T00:58:50.800Z,49.50
2022-11-29T01:01:24.579Z,47.45
2022-11-29T01:03:58.083Z,53.20
2022-11-29T01:06:31.733Z,49.47
2022-11-29T01:09:05.376Z,55.28
2022-11-29T01:11:40.423Z,49.22
2022-11-29T01:14:14.361Z,50.80
2022-11-29T01:16:48.279Z,54.65
2022-11-29T01:19:21.843Z,49.97
2022-11-29T01:21:55.560Z,50.38
2022-11-29T01:24:29.782Z,54.08
2022-11-29T01:27:05.045Z,54.97
2022-11-29T01:29:38.509Z,51.65
2022-11-29T01:32:12.461Z,51.20
2022-11-29T01:34:46.251Z,46.55
2022-11-29T01:37:20.174Z,51.78
2022-11-29T01:39:53.655Z,48.15
2022-11-29T01:42:28.710Z,54.47
2022-11-29T01:45:22.169Z,51.97
2022-11-29T01:47:58.924Z,52.00
2022-11-29T01:50:32.465Z,59.15
2022-11-29T01:53:06.893Z,50.70
2022-11-29T01:55:43.723Z,58.28
2022-11-29T01:58:19.323Z,57.25
2022-11-29T02:00:52.970Z,57.50
2022-11-29T02:03:26.880Z,47.13
2022-11-29T02:06:02.431Z,56.58
2022-11-29T02:08:39.494Z,56.35
2022-11-29T02:11:44.286Z,54.47
2022-11-29T02:14:37.251Z,54.08
2022-11-29T02:17:21.889Z,54.42
2022-11-29T02:20:30.552Z,53.33
2022-11-29T02:23:16.415Z,54.00
2022-11-29T02:26:04.132Z,52.78
2022-11-29T02:29:01.775Z,55.88
2022-11-29T02:31:56.972Z,59.30
2022-11-29T02:34:45.954Z,55.03
2022-11-29T02:37:40.326Z,60.58
2022-11-29T02:40:44.668Z,58.70
2022-11-29T02:43:36.261Z,56.35
2022-11-29T02:46:25.675Z,60.47
2022-11-29T02:49:09.344Z,62.47
2022-11-29T02:51:49.095Z,61.97
2022-11-29T02:54:28.858Z,55.65
2022-11-29T02:57:12.683Z,63.20
2022-11-29T02:59:54.317Z,56.35
2022-11-29T03:02:33.589Z,59.75
2022-11-29T03:05:18.385Z,58.97
2022-11-29T03:07:59.755Z,63.92
2022-11-29T03:10:40.660Z,58.28
2022-11-29T03:13:23.886Z,63.65
2022-11-29T03:16:04.496Z,59.97
2022-11-29T03:18:50.885Z,59.80
2022-11-29T03:21:36.322Z,56.03
2022-11-29T03:24:17.058Z,62.03
2022-11-29T03:26:55.228Z,68.85
2022-11-29T03:29:33.983Z,56.30
2022-11-29T03:34:57.362Z,65.70
2022-11-29T03:37:41.457Z,64.38
2022-11-29T03:40:20.642Z,62.97
2022-11-29T03:42:57.589Z,59.15
2022-11-29T03:45:35.971Z,58.47
2022-11-29T03:48:15.763Z,64.20
2022-11-29T03:50:55.085Z,60.08
2022-11-29T03:53:36.926Z,59.40
2022-11-29T03:56:29.166Z,65.85
2022-11-29T03:59:12.260Z,61.92
2022-11-29T04:02:04.341Z,62.40
2022-11-29T04:05:05.215Z,68.38
2022-11-29T04:07:51.748Z,59.63
2022-11-29T04:10:43.810Z,65.53
2022-11-29T04:13:47.576Z,64.63
2022-11-29T04:16:56.657Z,61.00
2022-11-29T04:20:01.009Z,60.00
2022-11-29T04:22:53.808Z,65.95
2022-11-29T04:25:56.569Z,64.15
2022-11-29T04:29:01.118Z,59.78
2022-11-29T04:31:42.636Z,67.00
2022-11-29T04:34:39.618Z,65.38
2022-11-29T04:37:34.303Z,64.80
2022-11-29T04:40:27.399Z,61.10
2022-11-29T04:43:14.853Z,62.83
2022-11-29T04:46:21.502Z,66.63
2022-11-29T04:49:11.350Z,66.13
2022-11-29T04:52:06.567Z,62.10
2022-11-29T04:54:47.414Z,66.80
2022-11-29T04:57:33.871Z,64.15
2022-11-29T05:00:10.999Z,60.75
2022-11-29T05:02:52.172Z,66.70
2022-11-29T05:05:36.055Z,68.10
2022-11-29T05:08:25.153Z,64.93
2022-11-29T05:13:46.254Z,71.78
2022-11-29T05:16:36.791Z,64.53
2022-11-29T05:19:25.102Z,67.85
2022-11-29T05:22:20.820Z,62.40
2022-11-29T05:25:01.934Z,65.80
2022-11-29T05:27:46.231Z,64.30
2022-11-29T05:30:22.779Z,70.95
2022-11-29T05:33:05.846Z,59.83
2022-11-29T05:35:53.158Z,63.60
2022-11-29T05:38:45.312Z,68.32
2022-11-29T05:41:36.916Z,61.92
2022-11-29T05:44:15.274Z,69.53
2022-11-29T05:46:57.254Z,66.72
2022-11-29T05:49:40.225Z,66.03
2022-11-29T05:52:22.931Z,73.45
2022-11-29T05:55:20.255Z,70.22
2022-11-29T05:57:59.700Z,66.25
2022-11-29T06:00:42.158Z,70.72
2022-11-29T06:03:24.732Z,64.22
2022-11-29T06:06:02.622Z,70.05
2022-11-29T06:08:44.080Z,69.03
2022-11-29T06:11:24.511Z,65.50
2022-11-29T06:14:05.934Z,72.53
2022-11-29T06:17:03.440Z,72.05
2022-11-29T06:20:11.050Z,69.78
2022-11-29T06:22:57.378Z,65.97
2022-11-29T06:25:47.407Z,71.78
2022-11-29T06:28:33.385Z,68.65
2022-11-29T06:31:17.151Z,71.90
2022-11-29T06:33:59.574Z,67.95
2022-11-29T06:36:36.975Z,69.38
2022-11-29T06:39:11.551Z,64.88
2022-11-29T06:41:45.514Z,75.45
2022-11-29T06:44:21.368Z,65.25
2022-11-29T06:47:04.061Z,68.80
2022-11-29T06:49:43.871Z,73.05
2022-11-29T06:52:28.359Z,65.18
2022-11-29T06:55:11.411Z,62.92
2022-11-29T06:57:58.475Z,67.20
2022-11-29T07:00:43.653Z,63.58
2022-11-29T07:03:34.464Z,68.63
2022-11-29T07:06:16.056Z,72.50
2022-11-29T07:08:53.902Z,78.43
2022-11-29T07:11:28.182Z,72.55
2022-11-29T07:14:02.521Z,67.68
2022-11-29T07:16:44.316Z,69.13
2022-11-29T07:19:27.178Z,63.60
2022-11-29T07:22:09.615Z,73.82
2022-11-29T07:24:57.958Z,72.70
2022-11-29T07:27:40.190Z,72.47
2022-11-29T07:30:18.053Z,71.03
2022-11-29T07:33:04.701Z,66.57
2022-11-29T07:35:46.802Z,78.15
2022-11-29T07:38:29.676Z,68.68
2022-11-29T07:41:12.504Z,74.20
2022-11-29T07:43:51.619Z,72.28
2022-11-29T07:46:25.550Z,76.50
2022-11-29T07:49:00.464Z,72.03
2022-11-29T07:51:34.305Z,65.35
2022-11-29T07:54:08.048Z,73.43
2022-11-29T07:56:41.827Z,71.55
2022-11-29T07:59:15.344Z,69.53
2022-11-29T08:01:49.486Z,73.97
2022-11-29T08:04:24.379Z,68.63
2022-11-29T08:06:59.478Z,72.18
2022-11-29T08:09:33.087Z,66.78
2022-11-29T08:12:07.294Z,75.88
2022-11-29T08:14:40.742Z,69.35
2022-11-29T08:17:14.519Z,67.78
2022-11-29T08:19:49.433Z,68.10
2022-11-29T08:22:23.243Z,69.03
2022-11-29T08:24:57.969Z,69.53
2022-11-29T08:27:32.139Z,68.03
2022-11-29T08:30:06.664Z,66.07
2022-11-29T08:32:40.539Z,70.30
2022-11-29T08:35:15.717Z,68.43
2022-11-29T08:37:49.956Z,71.20
2022-11-29T08:40:24.404Z,71.75
2022-11-29T08:42:58.536Z,65.25
2022-11-29T08:45:32.112Z,75.78
2022-11-29T08:48:06.739Z,72.10
2022-11-29T08:50:41.739Z,69.10
2022-11-29T08:53:33.255Z,71.93
2022-11-29T08:56:41.642Z,71.63
2022-11-29T08:59:05.330Z,70.85
2022-11-29T09:01:40.103Z,64.15
2022-11-29T09:04:17.017Z,72.13
2022-11-29T09:06:52.577Z,72.30
2022-11-29T09:09:27.275Z,66.18
2022-11-29T09:12:00.880Z,68.53
2022-11-29T09:14:34.877Z,69.03
2022-11-29T09:17:08.388Z,68.32
2022-11-29T09:19:42.063Z,68.80
2022-11-29T09:22:17.029Z,65.57
2022-11-29T09:24:50.746Z,71.13
2022-11-29T09:27:24.380Z,69.38
2022-11-29T09:29:58.119Z,68.13
2022-11-29T09:32:32.138Z,65.07
2022-11-29T09:35:06.533Z,68.63
2022-11-29T09:37:44.278Z,69.45
2022-11-29T09:40:21.163Z,71.47
2022-11-29T09:43:01.739Z,68.20
2022-11-29T09:45:42.441Z,65.55
2022-11-29T09:48:56.195Z,70.35
2022-11-29T09:51:41.210Z,65.93
2022-11-29T09:54:26.002Z,69.18
2022-11-29T09:56:59.947Z,65.75
2022-11-29T09:59:39.636Z,71.00
2022-11-29T10:02:21.624Z,65.07
2022-11-29T10:05:01.477Z,74.97
2022-11-29T10:07:41.410Z,63.75
2022-11-29T10:10:21.562Z,64.38
2022-11-29T10:13:01.112Z,67.05
2022-11-29T10:15:41.110Z,67.97
2022-11-29T10:18:20.201Z,71.43
2022-11-29T10:23:36.079Z,65.57
2022-11-29T10:26:13.154Z,61.92
2022-11-29T10:28:49.320Z,74.30
2022-11-29T10:31:25.328Z,70.70
2022-11-29T10:34:02.164Z,70.97
2022-11-29T10:36:40.110Z,64.47
2022-11-29T10:39:19.967Z,64.07
2022-11-29T10:41:57.563Z,66.60
2022-11-29T10:44:33.367Z,66.75
2022-11-29T10:47:10.977Z,68.57
2022-11-29T10:49:44.906Z,65.40
2022-11-29T10:52:21.553Z,65.72
2022-11-29T10:54:59.580Z,70.60
2022-11-29T10:57:35.367Z,67.30
2022-11-29T11:00:11.771Z,66.78
2022-11-29T11:02:45.326Z,64.30
2022-11-29T11:05:26.728Z,72.07
2022-11-29T11:08:00.547Z,67.28
2022-11-29T11:10:34.548Z,66.47
2022-11-29T11:13:23.008Z,63.50
2022-11-29T11:16:08.592Z,69.65
2022-11-29T11:18:42.445Z,60.90
2022-11-29T11:21:18.165Z,68.78
2022-11-29T11:23:57.512Z,68.65
2022-11-29T11:26:44.081Z,73.30
2022-11-29T11:29:21.157Z,70.35
2022-11-29T11:31:57.536Z,70.45
2022-11-29T11:34:34.304Z,68.15
2022-11-29T11:37:23.741Z,66.05
2022-11-29T11:39:58.826Z,70.80
2022-11-29T11:42:38.645Z,64.07
2022-11-29T11:45:29.279Z,64.03
2022-11-29T11:48:05.876Z,72.18
2022-11-29T11:50:45.500Z,68.03
2022-11-29T11:53:23.468Z,68.80
2022-11-29T11:56:00.373Z,69.85
2022-11-29T11:58:37.481Z,75.88
2022-11-29T12:01:28.583Z,69.30
2022-11-29T12:04:06.052Z,71.97
2022-11-29T12:06:46.300Z,72.32
2022-11-29T12:09:35.013Z,69.25
2022-11-29T12:12:14.776Z,75.85
2022-11-29T12:14:56.985Z,73.25
2022-11-29T12:17:36.179Z,75.97
2022-11-29T12:20:21.267Z,72.63
2022-11-29T12:23:10.376Z,72.05
2022-11-29T12:25:50.316Z,73.80
2022-11-29T12:28:27.880Z,74.95
2022-11-29T12:31:15.622Z,70.20
2022-11-29T12:33:58.573Z,75.15
2022-11-29T12:36:41.420Z,78.38
2022-11-29T12:39:36.417Z,77.05
2022-11-29T12:42:18.527Z,83.75
2022-11-29T12:45:01.806Z,77.65
2022-11-29T12:47:52.062Z,80.78
2022-11-29T12:50:39.771Z,81.53
2022-11-29T12:53:29.865Z,80.75
2022-11-29T12:56:14.684Z,77.88
2022-11-29T12:59:02.463Z,76.32
2022-11-29T13:01:51.204Z,84.30
2022-11-29T13:07:16.271Z,77.25
2022-11-29T13:10:02.521Z,77.13
2022-11-29T13:12:38.713Z,76.28
2022-11-29T13:15:16.552Z,73.97
2022-11-29T13:17:58.052Z,77.10
2022-11-29T13:20:38.510Z,73.63
2022-11-29T13:23:45.823Z,75.93
2022-11-29T13:26:19.770Z,77.30
2022-11-29T13:28:53.618Z,78.43
2022-11-29T13:31:27.399Z,70.38
2022-11-29T13:34:07.561Z,77.22
2022-11-29T13:36:51.906Z,78.53
2022-11-29T13:39:39.447Z,71.78
2022-11-29T13:42:20.710Z,82.05
2022-11-29T13:45:05.650Z,80.85
2022-11-29T13:48:00.776Z,79.43
2022-11-29T13:50:42.441Z,80.00
2022-11-29T13:53:19.353Z,77.72
2022-11-29T13:56:00.697Z,72.88
2022-11-29T13:58:40.591Z,80.85
2022-11-29T14:01:17.976Z,80.90
2022-11-29T14:04:04.299Z,72.43
2022-11-29T14:06:40.031Z,75.97
2022-11-29T14:09:24.973Z,80.88
2022-11-29T14:12:04.801Z,78.38
2022-11-29T14:14:49.238Z,79.80
2022-11-29T14:17:48.478Z,73.18
2022-11-29T14:20:46.442Z,85.35
2022-11-29T14:23:37.119Z,84.00
2022-11-29T14:26:31.072Z,79.68
2022-11-29T14:29:44.118Z,82.57
2022-11-29T14:32:23.583Z,86.70
2022-11-29T14:35:03.196Z,83.78
2022-11-29T14:37:55.962Z,86.95
2022-11-29T14:40:35.488Z,80.80
2022-11-29T14:43:17.804Z,84.90
2022-11-29T14:46:09.623Z,81.20
2022-11-29T14:48:48.123Z,97.40
2022-11-29T14:51:23.079Z,91.57
2022-11-29T14:54:07.036Z,86.80
2022-11-29T14:56:43.227Z,95.25
2022-11-29T14:59:46.406Z,88.45
2022-11-29T15:02:32.328Z,86.63
2022-11-29T15:05:15.365Z,80.72
2022-11-29T15:07:53.748Z,92.72
2022-11-29T15:10:32.644Z,87.45
2022-11-29T15:16:04.303Z,91.18
2022-11-29T15:19:03.898Z,92.05
2022-11-29T15:21:45.355Z,85.35
2022-11-29T15:24:19.818Z,88.15
2022-11-29T15:26:56.112Z,88.35
2022-11-29T15:29:31.598Z,82.40
2022-11-29T15:32:07.139Z,81.18
2022-11-29T15:34:45.141Z,85.80
2022-11-29T15:37:24.599Z,78.93
2022-11-29T15:40:03.370Z,82.93
2022-11-29T15:42:43.001Z,84.38
2022-11-29T15:45:31.707Z,82.88
2022-11-29T15:48:19.102Z,79.75
2022-11-29T15:51:03.647Z,81.78
2022-11-29T15:53:41.559Z,82.78
2022-11-29T15:56:19.064Z,84.65
2022-11-29T15:59:02.493Z,93.03
2022-11-29T16:01:37.456Z,84.63
2022-11-29T16:04:18.561Z,86.40
2022-11-29T16:06:54.187Z,75.95
2022-11-29T16:09:34.110Z,80.25
2022-11-29T16:12:13.125Z,80.75
2022-11-29T16:14:51.528Z,81.32
2022-11-29T16:17:27.872Z,87.53
2022-11-29T16:20:24.242Z,82.60
2022-11-29T16:23:12.302Z,83.18
2022-11-29T16:25:53.995Z,77.20
2022-11-29T16:28:33.989Z,85.32
2022-11-29T16:31:07.711Z,81.88
2022-11-29T16:33:41.273Z,76.70
2022-11-29T16:36:18.161Z,85.18
2022-11-29T16:38:55.444Z,79.72
2022-11-29T16:41:33.485Z,82.90
2022-11-29T16:44:08.105Z,82.20
2022-11-29T16:46:42.130Z,80.63
2022-11-29T16:49:33.617Z,82.53
2022-11-29T16:52:24.721Z,87.97
2022-11-29T16:55:00.200Z,77.30
2022-11-29T16:57:34.400Z,81.68
2022-11-29T17:00:13.144Z,83.15
2022-11-29T17:05:20.413Z,78.80
2022-11-29T17:07:54.413Z,89.50
2022-11-29T17:10:29.496Z,84.78
2022-11-29T17:13:04.416Z,85.20
2022-11-29T17:15:38.057Z,80.15
2022-11-29T17:18:11.702Z,84.03
2022-11-29T17:20:45.346Z,77.80
2022-11-29T17:23:19.183Z,82.75
2022-11-29T17:26:00.659Z,84.47
2022-11-29T17:28:34.463Z,85.30
2022-11-29T17:31:11.960Z,94.57
2022-11-29T17:33:46.114Z,90.13
2022-11-29T17:36:21.383Z,92.55
2022-11-29T17:38:55.195Z,88.80
2022-11-29T17:41:30.749Z,88.35
2022-11-29T17:44:05.154Z,90.32
2022-11-29T17:46:39.352Z,88.55
2022-11-29T17:49:13.235Z,85.65
2022-11-29T17:51:54.436Z,90.07
2022-11-29T17:54:28.317Z,89.53
2022-11-29T17:57:03.784Z,90.80
2022-11-29T17:59:37.687Z,87.18
2022-11-29T18:02:15.218Z,95.60
2022-11-29T18:04:48.950Z,95.22
2022-11-29T18:07:22.398Z,89.03
2022-11-29T18:09:56.102Z,97.72
2022-11-29T18:12:30.917Z,94.50
2022-11-29T18:15:05.009Z,100.28
2022-11-29T18:17:38.507Z,96.85
2022-11-29T18:20:14.074Z,92.63
2022-11-29T18:22:47.923Z,97.40
2022-11-29T18:25:39.142Z,97.40
2022-11-29T18:28:14.622Z,95.65
2022-11-29T18:30:48.906Z,92.50
2022-11-29T18:33:22.467Z,97.18
2022-11-29T18:36:05.192Z,99.15
2022-11-29T18:38:39.130Z,92.28
2022-11-29T18:41:16.020Z,103.68
2022-11-29T18:43:57.284Z,96.45
2022-11-29T18:46:33.105Z,101.18
2022-11-29T18:49:08.500Z,99.28
2022-11-29T18:51:44.520Z,107.65
2022-11-29T18:54:19.800Z,107.07
2022-11-29T18:56:53.465Z,102.82
2022-11-29T18:59:28.299Z,107.18
2022-11-29T19:02:01.972Z,102.78
2022-11-29T19:04:36.790Z,98.55
2022-11-29T19:07:10.423Z,107.03
2022-11-29T19:09:43.995Z,106.13
2022-11-29T19:12:17.716Z,108.45
2022-11-29T19:14:52.802Z,101.10
2022-11-29T19:17:26.790Z,101.95
2022-11-29T19:20:00.593Z,106.90
2022-11-29T19:22:42.187Z,104.35
2022-11-29T19:25:17.274Z,103.00
2022-11-29T19:27:51.082Z,106.28
2022-11-29T19:30:25.913Z,110.22
2022-11-29T19:32:59.628Z,99.28
2022-11-29T19:35:33.078Z,107.55
2022-11-29T19:38:06.778Z,100.63
2022-11-29T19:40:40.466Z,117.60
2022-11-29T19:43:14.166Z,106.47
2022-11-29T19:45:49.082Z,104.60
2022-11-29T19:48:22.882Z,112.57
2022-11-29T19:50:56.346Z,110.65
2022-11-29T19:53:30.533Z,122.78
2022-11-29T19:56:05.994Z,110.80
2022-11-29T19:58:40.154Z,115.28
2022-11-29T20:01:17.995Z,114.40
2022-11-29T20:03:52.245Z,120.22
2022-11-29T20:06:27.670Z,122.97
2022-11-29T20:09:01.786Z,108.90
2022-11-29T20:11:36.009Z,121.97
2022-11-29T20:14:12.185Z,120.32
2022-11-29T20:16:47.024Z,114.53
2022-11-29T20:19:20.843Z,115.20
2022-11-29T20:21:54.929Z,118.32
2022-11-29T20:24:31.231Z,124.25
2022-11-29T20:27:07.462Z,115.15
2022-11-29T20:29:41.194Z,117.15
2022-11-29T20:32:16.850Z,116.75
2022-11-29T20:34:51.177Z,108.45
2022-11-29T20:37:39.599Z,111.22
2022-11-29T20:40:20.903Z,112.30
2022-11-29T20:43:04.605Z,107.80
2022-11-29T20:45:38.722Z,106.97
2022-11-29T20:48:17.928Z,111.07
2022-11-29T20:50:57.200Z,107.47
2022-11-29T20:53:39.428Z,110.18
2022-11-29T20:56:13.395Z,109.78
2022-11-29T20:58:46.892Z,116.45
2022-11-29T21:01:20.525Z,106.75
2022-11-29T21:03:55.705Z,108.45
2022-11-29T21:06:29.681Z,109.53
2022-11-29T21:09:03.215Z,112.57
2022-11-29T21:11:37.520Z,120.00
2022-11-29T21:14:11.683Z,104.07
2022-11-29T21:16:45.869Z,104.22
2022-11-29T21:19:25.626Z,105.57
2022-11-29T21:22:06.612Z,107.78
2022-11-29T21:24:49.061Z,111.55
2022-11-29T21:27:34.785Z,109.78
2022-11-29T21:30:18.629Z,108.25
2022-11-29T21:32:53.096Z,114.80
2022-11-29T21:35:27.931Z,112.40
2022-11-29T21:38:03.013Z,115.18
2022-11-29T21:40:36.682Z,110.38
2022-11-29T21:43:10.524Z,110.85
2022-11-29T21:45:44.101Z,107.03
2022-11-29T21:48:36.100Z,113.00
2022-11-29T21:51:12.178Z,115.30
2022-11-29T21:53:46.348Z,109.68
2022-11-29T21:56:20.016Z,102.15
2022-11-29T21:58:53.829Z,103.30
2022-11-29T22:01:28.194Z,106.65
2022-11-29T22:04:02.165Z,108.75
2022-11-29T22:06:37.752Z,112.93
2022-11-29T22:09:11.610Z,119.68
2022-11-29T22:11:45.067Z,114.53
2022-11-29T22:14:19.083Z,118.18
2022-11-29T22:16:54.104Z,108.80
2022-11-29T22:19:29.933Z,115.80
2022-11-29T22:22:09.024Z,117.88
2022-11-29T22:24:42.700Z,108.43
2022-11-29T22:27:18.119Z,108.57
2022-11-29T22:29:52.025Z,111.85
2022-11-29T22:32:25.819Z,107.90
2022-11-29T22:34:59.553Z,103.65
2022-11-29T22:37:34.427Z,115.18
2022-11-29T22:40:09.175Z,120.53
2022-11-29T22:42:43.281Z,115.10
2022-11-29T22:45:17.000Z,109.57
2022-11-29T22:47:50.482Z,111.93
2022-11-29T22:50:24.645Z,117.65
2022-11-29T22:52:59.422Z,103.45
2022-11-29T22:55:33.137Z,107.88
2022-11-29T22:58:06.838Z,109.53
2022-11-29T23:00:44.034Z,111.45
2022-11-29T23:03:17.740Z,106.57
2022-11-29T23:05:52.175Z,111.25
2022-11-29T23:08:30.421Z,107.65
2022-11-29T23:11:05.767Z,113.32
2022-11-29T23:13:41.018Z,109.68
2022-11-29T23:16:17.655Z,105.72
2022-11-29T23:18:51.767Z,100.05
2022-11-29T23:21:26.808Z,108.85
2022-11-29T23:24:01.810Z,104.38
2022-11-29T23:26:38.890Z,113.30
2022-11-29T23:29:14.833Z,104.05
2022-11-29T23:31:49.182Z,106.55
2022-11-29T23:34:22.772Z,111.57
2022-11-29T23:36:56.441Z,116.80
2022-11-29T23:39:31.302Z,102.97
2022-11-29T23:42:05.588Z,98.85
2022-11-29T23:44:39.035Z,102.47
2022-11-29T23:47:12.723Z,102.95
2022-11-29T23:49:46.232Z,101.90
2022-11-29T23:52:19.922Z,106.57
2022-11-29T23:54:54.884Z,109.05
2022-11-29T23:57:30.140Z,105.97
